Time;durP1;ratioP1;P1;durP2;ratioP2;P2;SDS_P1;SDS_P2;PMS_P1;PMS_P2;Temp;Humidity;BMP_temperature;BMP_pressure;BME280_temperature;BME280_humidity;BME280_pressure;Samples;Min_cycle;Max_cycle;Signal;HPM_P1;HPM_P2
2022/09/04 00:02:47;;;;;;;15.53;10.25;;;;;;;11.09;93.33;99381.25;4474557;78;21007;-83
2022/09/04 00:16:01;;;;;;;16.40;11.88;;;;;;;11.01;93.46;99387.78;4456190;78;21595;-82
2022/09/04 00:22:11;;;;;;;16.97;11.60;;;;;;;10.95;93.44;99387.88;4476398;78;21556;-83
2022/09/04 00:28:30;;;;;;;17.30;11.30;;;;;;;10.95;94.06;99386.52;4475989;78;21033;-83
2022/09/04 00:35:15;;;;;;;14.23;11.25;;;;;;;10.96;94.17;99386.75;4472729;78;21554;-83
2022/09/04 00:41:43;;;;;;;16.45;11.43;;;;;;;10.86;93.82;99381.31;4477031;78;20983;-83
2022/09/04 00:48:10;;;;;;;14.03;11.10;;;;;;;10.80;94.47;99383.34;4467504;78;21459;-83
2022/09/04 00:54:44;;;;;;;15.67;11.93;;;;;;;10.77;94.63;99386.22;4468615;78;21050;-83
2022/09/04 01:00:46;;;;;;;14.40;11.12;;;;;;;10.77;95.11;99392.30;4467839;78;21043;-83
2022/09/04 01:07:39;;;;;;;14.07;10.88;;;;;;;10.79;95.54;99391.36;4443949;78;22010;-83
2022/09/04 01:14:05;;;;;;;14.33;11.43;;;;;;;10.77;95.28;99393.06;4467524;78;21034;-85
2022/09/04 01:20:34;;;;;;;14.35;11.48;;;;;;;10.70;95.38;99394.34;4473035;78;21031;-83
2022/09/04 01:26:54;;;;;;;13.70;10.63;;;;;;;10.69;95.89;99398.81;4472493;78;21568;-83
2022/09/04 01:33:20;;;;;;;12.25;10.60;;;;;;;10.74;95.97;99391.66;4464958;78;21062;-83
2022/09/04 01:39:26;;;;;;;16.27;10.90;;;;;;;10.73;95.73;99386.76;4472572;78;21019;-82
2022/09/04 01:46:03;;;;;;;16.30;11.43;;;;;;;10.63;95.93;99390.69;4468143;78;21617;-82
2022/09/04 01:52:24;;;;;;;;;;;;;;;10.60;96.25;99390.83;4468193;78;20995;-82
2022/09/04 01:58:40;;;;;;;12.40;10.48;;;;;;;10.61;96.89;99391.63;4444287;78;20219;-82
2022/09/04 02:05:09;;;;;;;11.95;10.40;;;;;;;10.62;96.65;99394.56;4470036;78;20947;-82
2022/09/04 02:11:21;;;;;;;15.83;11.00;;;;;;;10.64;96.55;99391.70;4482030;78;20971;-82
2022/09/04 02:17:49;;;;;;;14.03;10.80;;;;;;;10.54;96.45;99388.19;4467592;78;21554;-82
2022/09/04 02:24:25;;;;;;;15.23;11.65;;;;;;;10.45;96.48;99389.58;4398813;78;21030;-84
2022/09/04 02:30:41;;;;;;;13.95;11.12;;;;;;;10.42;96.89;99395.78;4474720;78;21042;-83
2022/09/04 02:37:03;;;;;;;15.65;11.45;;;;;;;10.46;97.46;99395.28;4474456;78;20969;-82
2022/09/04 02:43:13;;;;;;;16.50;11.38;;;;;;;10.48;97.71;99388.28;4472145;78;21578;-82
2022/09/04 02:50:05;;;;;;;15.50;11.25;;;;;;;10.51;97.72;99392.22;4475583;78;21078;-82
2022/09/04 02:56:42;;;;;;;18.45;14.60;;;;;;;10.46;97.62;99388.44;4470999;78;21106;-82
2022/09/04 03:03:18;;;;;;;20.37;14.13;;;;;;;10.45;97.98;99395.85;4471551;78;21616;-81
2022/09/04 03:09:36;;;;;;;35.58;20.08;;;;;;;10.37;97.86;99389.23;4468813;78;21030;-82
2022/09/04 03:16:17;;;;;;;19.00;13.83;;;;;;;10.31;97.92;99385.22;4478402;78;21042;-82
2022/09/04 03:22:34;;;;;;;17.05;14.07;;;;;;;10.21;97.81;99387.97;4475231;78;21534;-81
2022/09/04 03:29:01;;;;;;;18.60;13.80;;;;;;;10.17;98.21;99385.77;4474831;78;21031;-81
2022/09/04 03:35:41;;;;;;;16.67;13.40;;;;;;;10.12;98.15;99399.73;4476966;78;20979;-82
2022/09/04 03:42:08;;;;;;;19.55;14.07;;;;;;;10.12;98.69;99392.89;4480507;78;20971;-82
2022/09/04 03:48:41;;;;;;;19.27;14.68;;;;;;;10.10;98.56;99397.92;4466670;78;20976;-82
2022/09/04 03:55:10;;;;;;;19.57;14.65;;;;;;;10.05;98.54;99394.11;4473798;78;20968;-82
2022/09/04 04:01:37;;;;;;;20.82;15.35;;;;;;;9.99;98.71;99399.63;4469355;78;21011;-83
2022/09/04 04:07:49;;;;;;;20.80;14.63;;;;;;;10.00;99.07;99399.86;4472582;78;21067;-81
2022/09/04 04:14:36;;;;;;;19.95;14.83;;;;;;;10.03;99.44;99406.55;4475261;78;20967;-81
2022/09/04 04:21:26;;;;;;;23.32;15.13;;;;;;;10.13;99.93;99416.94;4485915;78;20991;-81
2022/09/04 04:28:18;;;;;;;21.90;15.80;;;;;;;10.18;99.91;99411.19;4461811;78;21020;-81
2022/09/04 04:34:49;;;;;;;19.37;14.30;;;;;;;10.19;99.93;99413.55;4373055;80;21007;-82
2022/09/04 04:41:20;;;;;;;19.00;14.15;;;;;;;10.22;99.99;99444.30;4336495;81;21102;-81
2022/09/04 04:47:37;;;;;;;21.48;14.60;;;;;;;10.31;99.94;99439.95;4400811;80;21118;-84
2022/09/04 04:54:18;;;;;;;21.52;15.13;;;;;;;10.42;100.00;99447.78;4382761;80;21030;-82
2022/09/04 05:00:31;;;;;;;19.00;14.07;;;;;;;10.49;100.00;99443.83;4333265;81;21015;-82
2022/09/04 05:07:05;;;;;;;17.75;13.38;;;;;;;10.60;100.00;99457.90;4311572;81;20989;-82
2022/09/04 05:13:49;;;;;;;21.05;14.55;;;;;;;10.73;100.00;99455.78;4120044;84;21119;-82
2022/09/04 05:20:25;;;;;;;23.07;15.32;;;;;;;10.74;100.00;99467.73;4288795;82;21650;-82
2022/09/04 05:26:56;;;;;;;22.48;15.75;;;;;;;10.73;100.00;99470.84;4276669;82;21711;-84
2022/09/04 05:33:29;;;;;;;20.48;14.80;;;;;;;10.74;100.00;99471.08;4277539;81;21063;-83
2022/09/04 05:40:03;;;;;;;19.25;14.13;;;;;;;10.80;100.00;99473.16;4271274;82;21059;-82
2022/09/04 05:46:37;;;;;;;21.10;15.03;;;;;;;10.86;100.00;99488.13;4262306;82;20984;-81
2022/09/04 05:53:02;;;;;;;19.32;13.85;;;;;;;10.92;100.00;99492.70;4291447;81;21606;-82
2022/09/04 05:59:17;;;;;;;20.23;14.23;;;;;;;10.96;100.00;99499.83;4287170;81;21066;-84
2022/09/04 06:06:02;;;;;;;20.95;15.03;;;;;;;10.97;100.00;99497.88;4275222;81;20992;-84
2022/09/04 06:12:45;;;;;;;20.77;14.58;;;;;;;10.99;100.00;99499.69;4200284;82;21047;-83
2022/09/04 06:19:35;;;;;;;21.05;14.28;;;;;;;11.01;100.00;99509.68;4192092;83;21074;-82
2022/09/04 06:26:18;;;;;;;21.70;15.03;;;;;;;11.05;100.00;99515.46;4170177;82;21475;-82
2022/09/04 06:32:58;;;;;;;22.58;15.88;;;;;;;11.13;100.00;99522.42;4266947;82;21016;-84
2022/09/04 06:39:18;;;;;;;20.85;15.30;;;;;;;11.19;100.00;99534.66;4181951;83;21523;-83
2022/09/04 06:45:57;;;;;;;19.52;14.85;;;;;;;11.21;100.00;99526.30;4211678;83;21623;-84
2022/09/04 06:52:12;;;;;;;17.73;13.48;;;;;;;11.29;100.00;99535.42;4255507;82;20986;-83
2022/09/04 06:58:52;;;;;;;17.48;12.82;;;;;;;11.38;100.00;99544.98;4260674;82;21091;-83
2022/09/04 07:05:31;;;;;;;16.82;12.90;;;;;;;11.47;100.00;99548.26;4249906;82;21075;-83
2022/09/04 07:12:25;;;;;;;16.55;12.82;;;;;;;11.56;100.00;99543.91;4271795;81;21510;-84
2022/09/04 07:19:15;;;;;;;18.07;12.88;;;;;;;11.63;100.00;99530.31;4292777;81;20980;-83
2022/09/04 07:25:28;;;;;;;16.55;11.10;;;;;;;11.73;100.00;99535.19;4351454;80;21028;-83
2022/09/04 07:31:58;;;;;;;14.38;11.03;;;;;;;11.87;100.00;99536.16;4341560;81;20972;-85
2022/09/04 07:38:44;;;;;;;12.37;10.00;;;;;;;12.10;100.00;99535.53;4333365;80;21006;-83
2022/09/04 07:44:59;;;;;;;15.08;10.25;;;;;;;12.33;100.00;99549.14;4336712;80;21619;-84
2022/09/04 07:51:12;;;;;;;11.65;8.70;;;;;;;12.56;100.00;99558.86;4334848;80;21045;-85
2022/09/04 07:57:58;;;;;;;11.85;9.28;;;;;;;12.71;100.00;99563.94;4328832;81;21087;-83
2022/09/04 08:04:36;;;;;;;16.25;8.55;;;;;;;12.84;100.00;99575.47;4331880;80;21008;-84
2022/09/04 08:10:59;;;;;;;11.57;9.08;;;;;;;13.26;100.00;99578.11;4323556;81;21494;-83
2022/09/04 08:17:35;;;;;;;11.75;8.05;;;;;;;13.89;100.00;99578.61;4314891;81;21002;-82
2022/09/04 08:24:06;;;;;;;10.25;7.50;;;;;;;14.27;100.00;99582.05;4241663;81;21072;-82
2022/09/04 08:30:13;;;;;;;8.05;6.80;;;;;;;14.88;99.58;99592.92;4312081;81;21026;-82
2022/09/04 08:36:45;;;;;;;9.25;7.60;;;;;;;14.92;97.40;99590.41;4309968;80;21004;-84
2022/09/04 08:43:39;;;;;;;11.30;6.25;;;;;;;14.93;97.80;99596.69;4294041;82;21071;-82
2022/09/04 08:50:26;;;;;;;7.85;6.12;;;;;;;15.29;97.80;99592.25;4308377;82;21064;-84
2022/09/04 08:56:56;;;;;;;7.78;6.50;;;;;;;15.60;97.20;99610.05;4309069;82;20979;-82
2022/09/04 09:03:43;;;;;;;8.13;6.35;;;;;;;15.68;96.35;99609.48;4308968;80;21034;-83
2022/09/04 09:10:28;;;;;;;8.78;6.55;;;;;;;15.74;95.82;99607.28;4224891;81;21083;-85
2022/09/04 09:30:38;;;;;;;5.83;5.17;;;;;;;15.63;94.96;99616.16;4320246;82;21095;-85
2022/09/04 09:37:52;;;;;;;8.80;5.70;;;;;;;15.63;94.73;99640.98;4312332;82;20968;-84
2022/09/04 09:44:57;;;;;;;7.87;5.45;;;;;;;15.66;94.64;99654.80;4317183;82;21043;-84
2022/09/04 09:52:15;;;;;;;7.45;5.75;;;;;;;15.64;94.21;99657.77;4304696;82;21981;-83
2022/09/04 09:59:26;;;;;;;6.50;5.53;;;;;;;15.52;94.03;99654.78;3935825;89;21000;-84
2022/09/04 10:06:07;;;;;;;6.53;5.20;;;;;;;15.49;94.05;99651.43;3968888;87;20987;-85
2022/09/04 10:51:55;;;;;;;8.73;6.05;;;;;;;15.47;93.88;99659.30;4462389;77;20987;-84
2022/09/04 10:59:14;;;;;;;7.42;5.83;;;;;;;15.60;93.80;99670.75;4473327;77;20975;-85
2022/09/04 11:06:34;;;;;;;7.05;5.78;;;;;;;15.73;93.15;99673.92;4478643;77;21201;-84
2022/09/04 11:13:35;;;;;;;7.80;6.10;;;;;;;15.99;93.33;99670.20;4438055;77;21063;-84
2022/09/04 11:35:00;;;;;;;6.33;5.25;;;;;;;16.17;92.56;99677.10;4381270;78;21078;-84
2022/09/04 11:48:56;;;;;;;6.90;5.53;;;;;;;16.43;92.16;99673.32;4334216;79;21051;-85
2022/09/04 11:56:11;;;;;;;6.03;5.37;;;;;;;16.54;91.92;99673.33;4295972;81;20996;-85
2022/09/04 12:03:07;;;;;;;6.80;5.72;;;;;;;16.73;92.18;99664.01;4321408;78;21074;-85
2022/09/04 12:16:14;;;;;;;9.48;5.65;;;;;;;17.03;91.24;99662.92;4366928;77;21058;-85
2022/09/04 13:19:58;;;;;;;7.62;5.55;;;;;;;17.15;90.10;99664.42;4098234;84;21674;-84
2022/09/04 13:26:36;;;;;;;7.80;5.65;;;;;;;17.27;90.77;99660.42;4115193;84;21099;-83
2022/09/04 14:44:53;;;;;;;11.05;7.10;;;;;;;17.27;90.51;99676.44;3929030;89;21139;-85
2022/09/04 14:58:09;;;;;;;10.48;7.35;;;;;;;17.28;90.77;99676.62;4150636;80;20114;-85
2022/09/04 15:47:07;;;;;;;8.93;6.40;;;;;;;17.36;91.25;99686.47;4272168;82;21484;-83
2022/09/04 16:46:26;;;;;;;11.80;7.78;;;;;;;16.89;92.81;99682.33;4514651;77;26948;-85
2022/09/04 19:40:42;;;;;;;14.55;10.45;;;;;;;15.73;100.00;99815.50;4259182;79;21874;-84
2022/09/04 19:47:24;;;;;;;13.13;10.68;;;;;;;15.69;100.00;99826.52;4084306;85;20995;-82
2022/09/04 19:53:45;;;;;;;15.30;11.03;;;;;;;15.65;100.00;99826.31;4259491;82;21021;-83
2022/09/04 19:59:56;;;;;;;17.90;12.98;;;;;;;15.57;100.00;99829.64;4258851;82;21028;-84
2022/09/04 20:34:04;;;;;;;13.28;9.95;;;;;;;15.36;100.00;99847.42;4169985;83;21035;-84
2022/09/04 20:40:44;;;;;;;15.03;10.78;;;;;;;15.32;100.00;99839.73;4141083;83;21141;-84
2022/09/04 20:47:18;;;;;;;15.72;11.63;;;;;;;15.28;100.00;99837.55;4169296;82;21012;-83
2022/09/04 20:53:59;;;;;;;16.35;11.68;;;;;;;15.23;100.00;99839.88;4276451;81;21035;-84
2022/09/04 21:00:15;;;;;;;13.65;10.10;;;;;;;15.14;100.00;99840.20;4391291;79;22021;-84
2022/09/04 21:06:39;;;;;;;14.97;10.33;;;;;;;15.10;100.00;99839.98;4403222;79;21744;-83
2022/09/04 21:12:57;;;;;;;13.65;10.08;;;;;;;15.04;100.00;99845.66;4399337;78;21074;-84
2022/09/04 21:19:37;;;;;;;13.40;9.88;;;;;;;14.86;100.00;99851.05;4416897;79;22031;-84
2022/09/04 21:26:20;;;;;;;14.00;10.55;;;;;;;14.70;100.00;99858.02;4410148;79;21039;-84
2022/09/04 21:32:53;;;;;;;16.05;12.15;;;;;;;14.56;100.00;99863.41;4412364;79;21059;-83
2022/09/04 21:39:23;;;;;;;15.48;10.93;;;;;;;14.49;100.00;99861.38;4405824;79;21639;-84
2022/09/04 21:46:08;;;;;;;15.53;12.00;;;;;;;14.45;100.00;99866.64;4404234;79;21983;-84
2022/09/04 21:52:27;;;;;;;15.25;11.15;;;;;;;14.33;100.00;99855.30;4405249;79;21015;-84
2022/09/04 22:06:27;;;;;;;13.25;10.68;;;;;;;14.32;100.00;99857.87;4413508;79;21068;-84
2022/09/04 22:13:37;;;;;;;13.68;9.75;;;;;;;14.38;100.00;99864.61;4422398;78;21201;-84
2022/09/04 22:27:20;;;;;;;14.50;10.20;;;;;;;14.31;100.00;99870.64;4237662;80;20176;-84
2022/09/04 22:34:06;;;;;;;16.00;11.30;;;;;;;14.25;100.00;99868.80;4403101;79;21055;-83
2022/09/04 22:40:51;;;;;;;12.47;10.23;;;;;;;14.06;100.00;99859.34;4392026;79;21049;-85
2022/09/04 22:47:26;;;;;;;11.83;9.80;;;;;;;13.92;100.00;99870.20;4408153;79;21070;-84
2022/09/04 22:54:15;;;;;;;14.13;10.82;;;;;;;13.83;100.00;99877.94;4407652;79;21985;-84
2022/09/04 23:00:19;;;;;;;16.93;11.00;;;;;;;13.82;100.00;99881.29;4420304;79;21037;-84
2022/09/04 23:06:45;;;;;;;13.38;9.38;;;;;;;13.68;100.00;99888.56;4328254;80;20988;-83
2022/09/04 23:13:12;;;;;;;14.47;9.75;;;;;;;13.61;100.00;99897.52;4245429;81;21532;-83
2022/09/04 23:19:41;;;;;;;12.15;10.30;;;;;;;13.51;100.00;99901.52;4399242;79;21873;-84
2022/09/04 23:26:34;;;;;;;15.10;11.00;;;;;;;13.39;100.00;99907.25;4410350;79;21015;-84
2022/09/04 23:33:22;;;;;;;11.83;10.00;;;;;;;13.22;100.00;99903.05;4421994;79;21551;-83
2022/09/04 23:39:55;;;;;;;15.70;11.22;;;;;;;13.13;100.00;99908.03;4423206;79;21181;-84
2022/09/04 23:46:46;;;;;;;13.90;11.20;;;;;;;13.23;100.00;99904.66;4413221;78;21183;-84
2022/09/04 23:53:48;;;;;;;15.58;11.48;;;;;;;13.18;100.00;99905.55;4415528;79;21008;-83
